createdAt,value
2023-02-17T00:00:19.376Z,885.84
2023-02-17T00:01:19.332Z,885.88
2023-02-17T00:02:26.696Z,886.01
2023-02-17T00:03:26.676Z,886.60
2023-02-17T00:04:26.862Z,886.88
2023-02-17T00:05:26.612Z,887.41
2023-02-17T00:06:26.308Z,887.33
2023-02-17T00:07:26.798Z,887.86
2023-02-17T00:08:19.255Z,888.49
2023-02-17T00:09:19.266Z,888.56
2023-02-17T00:10:19.253Z,888.39
2023-02-17T00:11:19.229Z,888.69
2023-02-17T00:12:19.237Z,888.33
2023-02-17T00:13:19.209Z,888.31
2023-02-17T00:14:19.221Z,888.22
2023-02-17T00:15:19.197Z,888.37
2023-02-17T00:16:19.218Z,888.44
2023-02-17T00:17:19.167Z,888.30
2023-02-17T00:18:19.159Z,888.29
2023-02-17T00:19:20.868Z,888.27
2023-02-17T00:20:19.127Z,888.37
2023-02-17T00:21:19.132Z,888.20
2023-02-17T00:22:19.117Z,888.26
2023-02-17T00:23:19.092Z,888.24
2023-02-17T00:24:19.101Z,888.17
2023-02-17T00:25:19.066Z,888.37
2023-02-17T00:26:19.079Z,888.51
2023-02-17T00:27:19.058Z,888.24
2023-02-17T00:28:19.330Z,888.39
2023-02-17T00:29:19.072Z,888.63
2023-02-17T00:30:19.058Z,888.92
2023-02-17T00:31:19.095Z,888.84
2023-02-17T00:32:19.029Z,888.67
2023-02-17T00:33:19.015Z,888.01
2023-02-17T00:34:18.987Z,888.16
2023-02-17T00:35:18.964Z,887.72
2023-02-17T00:36:18.966Z,887.56
2023-02-17T00:37:18.967Z,887.04
2023-02-17T00:38:18.957Z,886.56
2023-02-17T00:39:18.953Z,886.42
2023-02-17T00:40:18.920Z,886.18
2023-02-17T00:41:18.951Z,886.08
2023-02-17T00:42:18.915Z,886.09
2023-02-17T00:43:18.886Z,885.91
2023-02-17T00:44:18.885Z,886.11
2023-02-17T00:45:18.856Z,886.23
2023-02-17T00:46:18.891Z,886.00
2023-02-17T00:47:18.850Z,885.42
2023-02-17T00:48:18.912Z,885.41
2023-02-17T00:49:18.822Z,884.31
2023-02-17T00:50:18.810Z,883.83
2023-02-17T00:51:19.089Z,883.53
2023-02-17T00:52:18.937Z,883.22
2023-02-17T00:53:19.072Z,882.28
2023-02-17T00:54:18.766Z,881.09
2023-02-17T00:55:18.750Z,880.41
2023-02-17T00:56:19.041Z,880.09
2023-02-17T00:57:18.738Z,879.91
2023-02-17T00:58:18.708Z,879.87
2023-02-17T00:59:18.730Z,880.02
2023-02-17T01:00:18.708Z,879.91
2023-02-17T01:01:18.753Z,878.74
2023-02-17T01:02:18.699Z,877.68
2023-02-17T01:03:18.665Z,876.25
2023-02-17T01:04:18.650Z,875.46
2023-02-17T01:05:18.628Z,875.47
2023-02-17T01:06:18.618Z,875.29
2023-02-17T01:07:22.613Z,875.18
2023-02-17T01:08:18.601Z,875.48
2023-02-17T01:09:18.623Z,875.77
2023-02-17T01:10:18.591Z,875.76
2023-02-17T01:11:18.607Z,875.93
2023-02-17T01:12:18.565Z,875.76
2023-02-17T01:13:18.571Z,876.12
2023-02-17T01:14:18.542Z,876.95
2023-02-17T01:15:18.536Z,877.25
2023-02-17T01:16:18.558Z,877.46
2023-02-17T01:17:18.538Z,877.86
2023-02-17T01:18:18.504Z,878.19
2023-02-17T01:19:18.529Z,878.68
2023-02-17T01:20:18.480Z,879.40
2023-02-17T01:21:18.481Z,879.87
2023-02-17T01:22:18.460Z,880.33
2023-02-17T01:23:18.471Z,880.06
2023-02-17T01:24:18.450Z,880.28
2023-02-17T01:25:18.432Z,880.52
2023-02-17T01:26:18.422Z,880.63
2023-02-17T01:27:18.403Z,880.83
2023-02-17T01:28:18.414Z,880.83
2023-02-17T01:29:18.388Z,880.80
2023-02-17T01:30:18.420Z,880.62
2023-02-17T01:31:18.484Z,880.59
2023-02-17T01:32:18.370Z,880.56
2023-02-17T01:33:18.322Z,880.62
2023-02-17T01:34:18.383Z,880.39
2023-02-17T01:35:18.314Z,880.50
2023-02-17T01:36:25.325Z,880.91
2023-02-17T01:37:26.141Z,880.31
2023-02-17T01:38:26.293Z,880.09
2023-02-17T01:39:25.277Z,880.60
2023-02-17T01:40:26.578Z,880.66
2023-02-17T01:41:18.228Z,880.21
2023-02-17T01:42:25.274Z,880.26
2023-02-17T01:43:25.743Z,880.58
2023-02-17T01:44:18.199Z,880.40
2023-02-17T01:45:18.196Z,880.95
2023-02-17T01:46:18.202Z,881.28
2023-02-17T01:47:18.193Z,881.32
2023-02-17T01:48:18.166Z,881.70
2023-02-17T01:49:18.164Z,881.93
2023-02-17T01:50:18.136Z,881.70
2023-02-17T01:51:18.165Z,881.92
2023-02-17T01:52:18.124Z,881.43
2023-02-17T01:53:18.144Z,880.86
2023-02-17T01:54:18.096Z,880.46
2023-02-17T01:55:18.089Z,880.09
2023-02-17T01:56:18.072Z,879.39
2023-02-17T01:57:18.076Z,879.13
2023-02-17T01:58:18.033Z,878.80
2023-02-17T01:59:18.050Z,878.77
2023-02-17T02:00:18.030Z,878.67
2023-02-17T02:01:18.013Z,878.44
2023-02-17T02:02:18.123Z,878.59
2023-02-17T02:03:18.001Z,878.44
2023-02-17T02:04:18.321Z,878.58
2023-02-17T02:05:17.974Z,878.63
2023-02-17T02:06:17.945Z,878.19
2023-02-17T02:07:17.953Z,878.17
2023-02-17T02:08:17.945Z,878.20
2023-02-17T02:09:17.950Z,878.23
2023-02-17T02:10:17.920Z,877.82
2023-02-17T02:11:17.912Z,877.82
2023-02-17T02:12:18.159Z,877.79
2023-02-17T02:13:17.973Z,877.61
2023-02-17T02:14:17.885Z,878.09
2023-02-17T02:15:17.873Z,879.25
2023-02-17T02:16:17.863Z,879.58
2023-02-17T02:17:17.866Z,879.52
2023-02-17T02:18:17.833Z,879.22
2023-02-17T02:19:17.834Z,878.84
2023-02-17T02:20:17.799Z,878.28
2023-02-17T02:21:17.813Z,878.00
2023-02-17T02:22:17.786Z,877.75
2023-02-17T02:23:17.784Z,877.60
2023-02-17T02:24:20.498Z,876.85
2023-02-17T02:25:17.745Z,876.84
2023-02-17T02:26:17.745Z,877.27
2023-02-17T02:27:17.734Z,877.11
2023-02-17T02:28:17.781Z,876.96
2023-02-17T02:29:17.736Z,876.65
2023-02-17T02:30:17.774Z,876.24
2023-02-17T02:31:17.784Z,875.82
2023-02-17T02:32:17.689Z,875.58
2023-02-17T02:33:17.673Z,875.50
2023-02-17T02:34:17.932Z,875.61
2023-02-17T02:35:17.657Z,876.07
2023-02-17T02:36:17.664Z,876.68
2023-02-17T02:37:17.639Z,876.77
2023-02-17T02:38:17.607Z,876.98
2023-02-17T02:39:17.623Z,877.25
2023-02-17T02:40:17.618Z,877.23
2023-02-17T02:41:17.673Z,877.41
2023-02-17T02:42:22.728Z,877.01
2023-02-17T02:43:20.478Z,877.22
2023-02-17T02:44:17.536Z,876.62
2023-02-17T02:45:17.533Z,876.60
2023-02-17T02:46:17.524Z,876.29
2023-02-17T02:47:17.520Z,875.54
2023-02-17T02:48:17.519Z,875.01
2023-02-17T02:49:17.519Z,872.95
2023-02-17T02:50:17.757Z,871.90
2023-02-17T02:51:17.465Z,871.40
2023-02-17T02:52:17.449Z,871.91
2023-02-17T02:53:17.454Z,871.70
2023-02-17T02:54:17.437Z,871.70
2023-02-17T02:55:17.419Z,870.82
2023-02-17T02:56:17.410Z,870.82
2023-02-17T02:57:17.412Z,871.01
2023-02-17T02:58:17.409Z,871.28
2023-02-17T02:59:17.388Z,870.11
2023-02-17T03:00:17.671Z,868.34
2023-02-17T03:01:17.437Z,865.34
2023-02-17T03:02:17.354Z,861.73
2023-02-17T03:03:17.358Z,858.98
2023-02-17T03:04:17.386Z,856.60
2023-02-17T03:05:17.324Z,853.44
2023-02-17T03:06:17.298Z,851.55
2023-02-17T03:07:17.277Z,850.32
2023-02-17T03:08:24.604Z,848.99
2023-02-17T03:09:24.286Z,847.04
2023-02-17T03:10:24.268Z,844.66
2023-02-17T03:11:24.271Z,843.00
2023-02-17T03:12:24.760Z,841.42
2023-02-17T03:13:24.759Z,841.22
2023-02-17T03:14:17.235Z,841.94
2023-02-17T03:15:17.199Z,842.37
2023-02-17T03:16:17.195Z,842.48
2023-02-17T03:17:17.159Z,842.14
2023-02-17T03:18:17.189Z,842.28
2023-02-17T03:19:17.213Z,842.27
2023-02-17T03:20:17.163Z,842.06
2023-02-17T03:21:17.257Z,841.96
2023-02-17T03:22:17.121Z,842.57
2023-02-17T03:23:17.132Z,841.54
2023-02-17T03:24:17.126Z,840.39
2023-02-17T03:25:17.122Z,840.38
2023-02-17T03:26:17.071Z,841.03
2023-02-17T03:27:17.076Z,841.84
2023-02-17T03:28:17.081Z,843.69
2023-02-17T03:29:17.059Z,845.13
2023-02-17T03:30:17.076Z,845.67
2023-02-17T03:31:17.147Z,845.94
2023-02-17T03:32:17.105Z,846.11
2023-02-17T03:33:16.994Z,847.12
2023-02-17T03:34:17.036Z,848.02
2023-02-17T03:35:16.972Z,848.95
2023-02-17T03:36:16.987Z,850.29
2023-02-17T03:37:16.949Z,852.18
2023-02-17T03:38:16.978Z,854.34
2023-02-17T03:39:16.947Z,856.42
2023-02-17T03:40:18.632Z,857.94
2023-02-17T03:41:16.904Z,859.91
2023-02-17T03:42:17.394Z,861.40
2023-02-17T03:43:17.949Z,863.19
2023-02-17T03:44:16.890Z,864.70
2023-02-17T03:45:16.878Z,866.09
2023-02-17T03:46:16.918Z,867.46
2023-02-17T03:47:16.844Z,868.09
2023-02-17T03:48:16.828Z,869.37
2023-02-17T03:49:16.830Z,870.40
2023-02-17T03:50:16.828Z,872.04
2023-02-17T03:51:16.794Z,873.33
2023-02-17T03:52:21.978Z,874.62
2023-02-17T03:53:16.756Z,875.52
2023-02-17T03:54:16.773Z,876.80
2023-02-17T03:55:16.766Z,878.00
2023-02-17T03:56:16.781Z,878.93
2023-02-17T03:57:16.739Z,879.99
2023-02-17T03:58:16.711Z,881.20
2023-02-17T03:59:16.754Z,882.33
2023-02-17T04:00:16.741Z,883.56
2023-02-17T04:01:16.790Z,884.89
2023-02-17T04:02:17.023Z,886.07
2023-02-17T04:03:16.924Z,886.68
2023-02-17T04:04:16.701Z,887.78
2023-02-17T04:05:16.662Z,888.40
2023-02-17T04:06:16.632Z,889.01
2023-02-17T04:07:16.625Z,889.71
2023-02-17T04:08:16.615Z,890.26
2023-02-17T04:09:16.603Z,890.79
2023-02-17T04:10:16.595Z,890.95
2023-02-17T04:11:16.674Z,892.12
2023-02-17T04:12:19.391Z,892.24
2023-02-17T04:13:16.564Z,892.14
2023-02-17T04:14:16.564Z,891.97
2023-02-17T04:15:16.542Z,892.54
2023-02-17T04:16:16.503Z,892.85
2023-02-17T04:17:16.504Z,893.57
2023-02-17T04:18:16.484Z,893.34
2023-02-17T04:19:16.479Z,893.86
2023-02-17T04:20:16.473Z,894.17
2023-02-17T04:21:16.514Z,894.86
2023-02-17T04:22:16.504Z,895.16
2023-02-17T04:23:16.436Z,895.38
2023-02-17T04:24:16.466Z,895.79
2023-02-17T04:25:16.408Z,895.97
2023-02-17T04:26:16.402Z,896.26
2023-02-17T04:27:16.479Z,896.47
2023-02-17T04:28:16.372Z,897.08
2023-02-17T04:29:16.395Z,897.43
2023-02-17T04:30:16.432Z,897.29
2023-02-17T04:31:21.376Z,897.49
2023-02-17T04:32:16.348Z,897.49
2023-02-17T04:33:16.338Z,897.07
2023-02-17T04:34:16.303Z,896.78
2023-02-17T04:35:16.334Z,896.79
2023-02-17T04:36:16.273Z,896.56
2023-02-17T04:37:16.297Z,895.93
2023-02-17T04:38:16.258Z,895.85
2023-02-17T04:39:16.275Z,895.70
2023-02-17T04:40:16.265Z,895.69
2023-02-17T04:41:16.256Z,894.51
2023-02-17T04:42:23.220Z,892.94
2023-02-17T04:43:24.210Z,891.91
2023-02-17T04:44:23.224Z,891.44
2023-02-17T04:45:23.221Z,890.96
2023-02-17T04:46:23.303Z,890.64
2023-02-17T04:47:16.167Z,889.13
2023-02-17T04:48:16.153Z,888.67
2023-02-17T04:49:16.153Z,887.96
2023-02-17T04:50:16.125Z,887.53
2023-02-17T04:51:16.145Z,888.16
2023-02-17T04:52:16.114Z,888.98
2023-02-17T04:53:16.102Z,889.26
2023-02-17T04:54:16.096Z,889.31
2023-02-17T04:55:16.345Z,890.01
2023-02-17T04:56:16.067Z,891.28
2023-02-17T04:57:16.079Z,892.70
2023-02-17T04:58:16.045Z,893.55
2023-02-17T04:59:16.047Z,894.13
2023-02-17T05:00:16.024Z,894.71
2023-02-17T05:01:16.061Z,895.16
2023-02-17T05:02:16.015Z,895.40
2023-02-17T05:03:16.020Z,895.24
2023-02-17T05:04:15.976Z,895.32
2023-02-17T05:05:15.973Z,895.20
2023-02-17T05:06:15.959Z,894.85
2023-02-17T05:07:15.991Z,894.48
2023-02-17T05:08:15.952Z,894.73
2023-02-17T05:09:15.922Z,894.76
2023-02-17T05:10:15.917Z,894.97
2023-02-17T05:11:15.920Z,894.98
2023-02-17T05:12:16.196Z,895.34
2023-02-17T05:13:15.878Z,895.71
2023-02-17T05:14:15.880Z,896.03
2023-02-17T05:15:15.845Z,896.12
2023-02-17T05:16:15.885Z,896.33
2023-02-17T05:17:15.832Z,896.65
2023-02-17T05:18:15.847Z,897.18
2023-02-17T05:19:15.820Z,897.67
2023-02-17T05:20:15.811Z,897.58
2023-02-17T05:21:15.802Z,897.45
2023-02-17T05:22:15.782Z,897.51
2023-02-17T05:23:15.772Z,896.91
2023-02-17T05:24:15.771Z,896.16
2023-02-17T05:25:15.771Z,895.58
2023-02-17T05:26:15.748Z,894.78
2023-02-17T05:27:15.720Z,894.29
2023-02-17T05:28:15.717Z,894.13
2023-02-17T05:29:15.748Z,894.27
2023-02-17T05:30:15.729Z,894.38
2023-02-17T05:31:16.072Z,894.49
2023-02-17T05:32:15.672Z,894.42
2023-02-17T05:33:15.670Z,894.52
2023-02-17T05:34:15.640Z,895.17
2023-02-17T05:35:15.654Z,895.44
2023-02-17T05:36:15.655Z,895.99
2023-02-17T05:37:15.601Z,897.09
2023-02-17T05:38:15.609Z,896.90
2023-02-17T05:39:15.581Z,897.50
2023-02-17T05:40:15.593Z,897.97
2023-02-17T05:41:15.545Z,898.22
2023-02-17T05:42:15.576Z,898.28
2023-02-17T05:43:15.539Z,898.19
2023-02-17T05:44:15.540Z,897.28
2023-02-17T05:45:15.531Z,897.36
2023-02-17T05:46:15.524Z,896.29
2023-02-17T05:47:15.502Z,895.97
2023-02-17T05:48:15.477Z,895.43
2023-02-17T05:49:15.501Z,895.25
2023-02-17T05:50:15.470Z,895.17
2023-02-17T05:51:15.452Z,894.72
2023-02-17T05:52:15.473Z,894.47
2023-02-17T05:53:15.417Z,893.74
2023-02-17T05:54:15.425Z,892.92
2023-02-17T05:55:15.425Z,892.80
2023-02-17T05:56:15.396Z,892.68
2023-02-17T05:57:15.409Z,892.20
2023-02-17T05:58:15.370Z,892.29
2023-02-17T05:59:15.378Z,891.92
2023-02-17T06:00:15.356Z,891.96
2023-02-17T06:01:15.346Z,892.01
2023-02-17T06:02:15.369Z,891.97
2023-02-17T06:03:15.349Z,891.84
2023-02-17T06:04:15.353Z,892.17
2023-02-17T06:05:15.453Z,891.66
2023-02-17T06:06:15.300Z,891.57
2023-02-17T06:07:15.270Z,891.15
2023-02-17T06:08:15.293Z,891.10
2023-02-17T06:09:15.312Z,891.23
2023-02-17T06:10:15.252Z,891.11
2023-02-17T06:11:15.277Z,891.23
2023-02-17T06:12:15.241Z,891.19
2023-02-17T06:13:15.237Z,890.79
2023-02-17T06:14:22.762Z,890.97
2023-02-17T06:15:22.208Z,890.86
2023-02-17T06:16:15.220Z,890.93
2023-02-17T06:17:22.717Z,891.02
2023-02-17T06:18:22.428Z,890.79
2023-02-17T06:19:22.780Z,890.78
2023-02-17T06:20:15.133Z,890.90
2023-02-17T06:21:15.134Z,891.02
2023-02-17T06:22:16.024Z,891.17
2023-02-17T06:23:15.121Z,891.69
2023-02-17T06:24:15.109Z,891.52
2023-02-17T06:25:15.080Z,891.97
2023-02-17T06:26:15.083Z,892.21
2023-02-17T06:27:15.076Z,891.88
2023-02-17T06:28:15.044Z,892.20
2023-02-17T06:29:15.034Z,892.04
2023-02-17T06:30:15.099Z,892.22
2023-02-17T06:31:15.279Z,892.68
2023-02-17T06:32:15.022Z,892.70
2023-02-17T06:33:14.997Z,892.89
2023-02-17T06:34:15.006Z,893.02
2023-02-17T06:35:14.991Z,892.94
2023-02-17T06:36:15.230Z,892.86
2023-02-17T06:37:14.954Z,892.30
2023-02-17T06:38:14.958Z,892.28
2023-02-17T06:39:14.920Z,891.70
2023-02-17T06:40:14.931Z,891.06
2023-02-17T06:41:14.907Z,890.66
2023-02-17T06:42:14.890Z,889.42
2023-02-17T06:43:14.888Z,887.96
2023-02-17T06:44:14.861Z,886.31
2023-02-17T06:45:14.880Z,885.27
2023-02-17T06:46:14.907Z,884.10
2023-02-17T06:47:14.856Z,883.11
2023-02-17T06:48:15.124Z,882.32
2023-02-17T06:49:14.817Z,881.88
2023-02-17T06:50:14.815Z,881.99
2023-02-17T06:51:14.788Z,881.82
2023-02-17T06:52:14.771Z,881.25
2023-02-17T06:53:14.795Z,881.42
2023-02-17T06:54:14.751Z,881.54
2023-02-17T06:55:14.752Z,881.89
2023-02-17T06:56:14.726Z,882.85
2023-02-17T06:57:14.724Z,883.01
2023-02-17T06:58:14.720Z,882.81
2023-02-17T06:59:14.696Z,882.60
2023-02-17T07:00:14.670Z,882.53
2023-02-17T07:01:14.692Z,882.95
2023-02-17T07:02:14.757Z,882.97
2023-02-17T07:03:14.755Z,882.99
2023-02-17T07:04:14.934Z,882.80
2023-02-17T07:05:14.682Z,883.62
2023-02-17T07:06:14.616Z,883.25
2023-02-17T07:07:14.917Z,884.39
2023-02-17T07:08:14.618Z,885.10
2023-02-17T07:09:14.590Z,885.77
2023-02-17T07:10:14.603Z,886.29
2023-02-17T07:11:14.590Z,886.39
2023-02-17T07:12:14.565Z,885.84
2023-02-17T07:13:14.561Z,885.49
2023-02-17T07:14:14.534Z,885.33
2023-02-17T07:15:14.539Z,884.67
2023-02-17T07:16:14.551Z,884.71
2023-02-17T07:17:14.477Z,884.09
2023-02-17T07:18:14.501Z,884.20
2023-02-17T07:19:14.482Z,885.41
2023-02-17T07:20:14.470Z,885.89
2023-02-17T07:21:14.447Z,885.66
2023-02-17T07:22:14.473Z,886.33
2023-02-17T07:23:14.433Z,886.69
2023-02-17T07:24:14.423Z,886.74
2023-02-17T07:25:14.421Z,886.48
2023-02-17T07:26:15.441Z,886.44
2023-02-17T07:27:14.401Z,885.97
2023-02-17T07:28:14.397Z,885.26
2023-02-17T07:29:14.368Z,884.56
2023-02-17T07:30:14.421Z,884.40
2023-02-17T07:31:14.431Z,883.82
2023-02-17T07:32:14.340Z,883.53
2023-02-17T07:33:14.326Z,883.46
2023-02-17T07:34:14.313Z,883.45
2023-02-17T07:35:14.319Z,883.20
2023-02-17T07:36:14.294Z,883.37
2023-02-17T07:37:14.274Z,886.12
2023-02-17T07:38:14.264Z,889.85
2023-02-17T07:39:14.262Z,892.12
2023-02-17T07:40:14.259Z,893.85
2023-02-17T07:41:14.223Z,893.65
2023-02-17T07:42:14.225Z,892.21
2023-02-17T07:43:14.235Z,891.12
2023-02-17T07:44:14.179Z,890.69
2023-02-17T07:45:14.211Z,890.40
2023-02-17T07:46:14.251Z,890.45
2023-02-17T07:47:14.154Z,889.14
2023-02-17T07:48:14.140Z,887.59
2023-02-17T07:49:22.431Z,886.15
2023-02-17T07:50:21.402Z,884.46
2023-02-17T07:51:21.139Z,884.35
2023-02-17T07:52:21.124Z,883.54
2023-02-17T07:53:21.137Z,882.51
2023-02-17T07:54:16.928Z,880.01
2023-02-17T07:55:14.095Z,878.51
2023-02-17T07:56:14.051Z,879.14
2023-02-17T07:57:14.046Z,880.11
2023-02-17T07:58:14.043Z,880.29
2023-02-17T07:59:14.030Z,880.55
2023-02-17T08:00:14.009Z,879.18
2023-02-17T08:01:14.014Z,878.47
2023-02-17T08:02:14.048Z,876.93
2023-02-17T08:03:13.966Z,876.12
2023-02-17T08:04:13.975Z,876.91
2023-02-17T08:05:13.988Z,878.65
2023-02-17T08:06:13.938Z,880.97
2023-02-17T08:07:13.967Z,883.37
2023-02-17T08:08:13.908Z,883.49
2023-02-17T08:09:13.899Z,882.35
2023-02-17T08:10:13.907Z,881.08
2023-02-17T08:11:13.900Z,881.83
2023-02-17T08:12:13.873Z,883.57
2023-02-17T08:13:13.866Z,885.47
2023-02-17T08:14:13.905Z,885.06
2023-02-17T08:15:13.845Z,882.34
2023-02-17T08:16:13.849Z,882.08
2023-02-17T08:17:13.853Z,877.97
2023-02-17T08:18:13.812Z,874.68
2023-02-17T08:19:13.819Z,873.54
2023-02-17T08:20:13.811Z,874.92
2023-02-17T08:21:13.788Z,874.83
2023-02-17T08:22:13.771Z,872.09
2023-02-17T08:23:13.761Z,868.73
2023-02-17T08:24:13.734Z,863.39
2023-02-17T08:25:13.761Z,859.83
2023-02-17T08:26:13.748Z,857.06
2023-02-17T08:27:13.719Z,857.65
2023-02-17T08:28:13.721Z,859.63
2023-02-17T08:29:13.715Z,859.91
2023-02-17T08:30:13.740Z,860.25
2023-02-17T08:31:13.780Z,860.24
2023-02-17T08:32:16.515Z,861.26
2023-02-17T08:33:17.470Z,861.02
2023-02-17T08:34:15.344Z,861.94
2023-02-17T08:35:13.614Z,862.52
2023-02-17T08:36:13.622Z,860.25
2023-02-17T08:37:13.583Z,862.39
2023-02-17T08:38:13.581Z,866.23
2023-02-17T08:39:13.581Z,861.24
2023-02-17T08:40:13.566Z,859.39
2023-02-17T08:41:13.542Z,859.84
2023-02-17T08:42:13.523Z,861.44
2023-02-17T08:43:13.594Z,859.36
2023-02-17T08:44:13.527Z,853.65
2023-02-17T08:45:13.591Z,849.75
2023-02-17T08:46:13.528Z,847.02
2023-02-17T08:47:13.487Z,846.72
2023-02-17T08:48:13.523Z,847.02
2023-02-17T08:49:13.535Z,847.31
2023-02-17T08:50:13.457Z,845.84
2023-02-17T08:51:13.438Z,846.63
2023-02-17T08:52:13.520Z,848.10
2023-02-17T08:53:13.435Z,847.49
2023-02-17T08:54:13.410Z,846.24
2023-02-17T08:55:13.450Z,845.55
2023-02-17T08:56:13.377Z,845.12
2023-02-17T08:57:13.374Z,844.41
2023-02-17T08:58:13.440Z,843.02
2023-02-17T08:59:13.334Z,842.88
2023-02-17T09:00:13.350Z,840.41
2023-02-17T09:01:13.326Z,836.18
2023-02-17T09:02:13.306Z,832.98
2023-02-17T09:03:13.349Z,828.15
2023-02-17T09:04:13.293Z,825.17
2023-02-17T09:05:13.308Z,821.76
2023-02-17T09:06:13.267Z,819.72
2023-02-17T09:07:13.271Z,818.58
2023-02-17T09:08:13.239Z,818.11
2023-02-17T09:09:13.249Z,817.39
2023-02-17T09:10:13.237Z,817.38
2023-02-17T09:11:13.209Z,818.08
2023-02-17T09:12:13.237Z,821.05
2023-02-17T09:13:13.284Z,825.19
2023-02-17T09:14:13.179Z,829.69
2023-02-17T09:15:13.173Z,832.54
2023-02-17T09:16:13.376Z,834.42
2023-02-17T09:17:13.169Z,836.13
2023-02-17T09:18:13.143Z,837.08
2023-02-17T09:19:13.122Z,837.43
2023-02-17T09:20:24.393Z,837.33
2023-02-17T09:21:14.080Z,836.61
2023-02-17T09:22:29.647Z,836.17
2023-02-17T09:24:24.099Z,839.01
2023-02-17T09:25:32.132Z,839.34
2023-02-17T09:26:24.096Z,841.13
2023-02-17T09:27:24.112Z,840.12
2023-02-17T09:28:24.100Z,842.50
2023-02-17T09:29:24.060Z,846.50
2023-02-17T09:31:35.459Z,854.79
2023-02-17T09:32:34.674Z,853.72
2023-02-17T09:33:34.644Z,853.50
2023-02-17T09:34:34.935Z,853.03
2023-02-17T09:35:46.092Z,853.96
2023-02-17T09:36:34.603Z,849.00
2023-02-17T09:37:34.605Z,841.15
2023-02-17T09:38:34.621Z,835.99
2023-02-17T09:39:34.660Z,832.29
2023-02-17T09:40:34.585Z,832.13
2023-02-17T09:41:34.601Z,831.41
2023-02-17T09:42:34.578Z,827.78
2023-02-17T09:43:34.574Z,826.67
2023-02-17T09:44:36.378Z,824.21
2023-02-17T09:45:34.681Z,824.12
2023-02-17T09:46:34.590Z,824.69
2023-02-17T09:47:34.487Z,826.22
2023-02-17T09:48:34.606Z,830.08
2023-02-17T09:49:34.466Z,833.31
2023-02-17T09:50:34.537Z,838.55
2023-02-17T09:51:34.456Z,845.03
2023-02-17T09:52:34.456Z,864.57
2023-02-17T09:53:34.419Z,873.64
2023-02-17T09:54:34.451Z,881.30
2023-02-17T09:55:34.468Z,888.09
2023-02-17T09:56:34.415Z,888.80
2023-02-17T09:57:34.392Z,895.98
2023-02-17T09:58:34.378Z,894.58
2023-02-17T09:59:34.344Z,889.00
2023-02-17T10:00:34.435Z,886.77
2023-02-17T10:01:34.338Z,863.91
2023-02-17T10:02:34.666Z,862.52
2023-02-17T10:03:34.366Z,854.23
2023-02-17T10:04:34.353Z,849.19
2023-02-17T10:05:34.317Z,844.98
2023-02-17T10:06:34.285Z,833.23
2023-02-17T10:07:34.341Z,833.10
2023-02-17T10:08:34.300Z,824.46
2023-02-17T10:09:43.771Z,815.60
2023-02-17T10:10:34.511Z,810.76
2023-02-17T10:11:34.267Z,810.29
2023-02-17T10:12:34.206Z,810.52
2023-02-17T10:13:34.214Z,814.64
2023-02-17T10:14:34.204Z,816.65
2023-02-17T10:15:34.200Z,815.41
2023-02-17T10:16:34.288Z,817.40
2023-02-17T10:17:34.172Z,818.52
2023-02-17T10:18:34.138Z,833.72
2023-02-17T10:19:34.131Z,837.08
2023-02-17T10:20:36.875Z,843.38
2023-02-17T10:21:34.212Z,836.77
2023-02-17T10:22:34.100Z,838.52
2023-02-17T10:23:34.142Z,854.44
2023-02-17T10:24:34.124Z,872.06
2023-02-17T10:25:34.078Z,859.96
2023-02-17T10:26:34.041Z,868.59
2023-02-17T10:27:34.120Z,865.13
2023-02-17T10:28:34.012Z,867.12
2023-02-17T10:29:34.048Z,849.04
2023-02-17T10:30:34.087Z,822.54
2023-02-17T10:31:34.081Z,850.37
2023-02-17T10:32:34.171Z,876.65
2023-02-17T10:33:34.016Z,888.47
2023-02-17T10:34:33.950Z,894.04
2023-02-17T10:35:34.018Z,872.77
2023-02-17T10:36:34.222Z,872.92
2023-02-17T10:37:33.935Z,882.89
2023-02-17T10:38:33.909Z,891.09
2023-02-17T10:39:33.926Z,885.86
2023-02-17T10:40:33.893Z,848.73
2023-02-17T10:41:33.893Z,851.51
2023-02-17T10:42:33.920Z,839.61
2023-02-17T10:43:33.856Z,846.32
2023-02-17T10:44:33.859Z,821.23
2023-02-17T10:45:33.893Z,815.93
2023-02-17T10:46:33.847Z,821.41
2023-02-17T10:47:33.804Z,825.89
2023-02-17T10:48:33.799Z,811.28
2023-02-17T10:49:33.781Z,807.63
2023-02-17T10:50:33.792Z,804.25
2023-02-17T10:51:33.764Z,794.32
2023-02-17T10:52:33.743Z,818.12
2023-02-17T10:53:33.743Z,834.96
2023-02-17T10:54:33.726Z,827.40
2023-02-17T10:55:33.763Z,845.67
2023-02-17T10:56:33.730Z,890.69
2023-02-17T10:57:33.696Z,881.94
2023-02-17T10:58:33.684Z,882.67
2023-02-17T10:59:33.669Z,911.31
2023-02-17T11:00:33.697Z,923.14
2023-02-17T11:01:33.660Z,933.21
2023-02-17T11:02:33.655Z,941.66
2023-02-17T11:03:33.639Z,945.88
2023-02-17T11:04:33.630Z,945.79
2023-02-17T11:05:33.610Z,938.35
2023-02-17T11:06:33.645Z,956.60
2023-02-17T11:07:33.590Z,955.58
2023-02-17T11:08:33.578Z,944.65
2023-02-17T11:09:33.558Z,949.55
2023-02-17T11:10:33.558Z,948.39
2023-02-17T11:11:33.559Z,941.42
2023-02-17T11:12:33.528Z,938.90
2023-02-17T11:13:33.510Z,934.23
2023-02-17T11:14:33.501Z,906.33
2023-02-17T11:15:33.510Z,927.28
2023-02-17T11:16:33.553Z,927.04
2023-02-17T11:17:37.563Z,925.78
2023-02-17T11:18:33.461Z,920.55
2023-02-17T11:19:33.442Z,914.09
2023-02-17T11:20:33.451Z,904.43
2023-02-17T11:21:33.476Z,893.38
2023-02-17T11:22:33.450Z,880.46
2023-02-17T11:23:33.404Z,882.61
2023-02-17T11:24:33.412Z,886.74
2023-02-17T11:25:33.401Z,892.72
2023-02-17T11:26:33.408Z,893.44
2023-02-17T11:27:33.384Z,900.12
2023-02-17T11:28:33.355Z,897.16
2023-02-17T11:29:33.347Z,896.73
2023-02-17T11:30:33.455Z,895.10
2023-02-17T11:31:33.466Z,900.51
2023-02-17T11:32:33.305Z,900.23
2023-02-17T11:33:33.297Z,898.02
2023-02-17T11:34:33.283Z,900.42
2023-02-17T11:35:33.305Z,908.41
2023-02-17T11:36:34.447Z,913.39
2023-02-17T11:37:33.270Z,922.35
2023-02-17T11:38:33.268Z,931.44
2023-02-17T11:39:33.247Z,937.71
2023-02-17T11:40:33.228Z,937.79
2023-02-17T11:41:33.262Z,928.24
2023-02-17T11:42:33.217Z,913.87
2023-02-17T11:43:33.193Z,907.68
2023-02-17T11:44:33.220Z,883.13
2023-02-17T11:45:33.201Z,869.89
2023-02-17T11:46:33.180Z,856.01
2023-02-17T11:47:33.191Z,850.48
2023-02-17T11:48:33.158Z,843.32
2023-02-17T11:49:37.067Z,837.14
2023-02-17T11:50:41.331Z,865.15
2023-02-17T11:51:34.117Z,855.53
2023-02-17T11:52:33.097Z,848.97
2023-02-17T11:53:33.099Z,840.97
2023-02-17T11:54:33.091Z,811.29
2023-02-17T11:55:33.101Z,784.10
2023-02-17T11:56:33.061Z,775.37
2023-02-17T11:57:33.068Z,768.24
2023-02-17T11:58:33.038Z,765.53
2023-02-17T11:59:33.745Z,767.08
2023-02-17T12:00:33.008Z,766.42
2023-02-17T12:01:33.016Z,758.51
2023-02-17T12:02:32.992Z,759.00
2023-02-17T12:03:34.239Z,761.62
2023-02-17T12:04:33.801Z,765.08
2023-02-17T12:05:32.942Z,769.62
2023-02-17T12:06:33.322Z,790.30
2023-02-17T12:07:32.967Z,797.21
2023-02-17T12:08:32.912Z,809.09
2023-02-17T12:09:32.900Z,839.20
2023-02-17T12:10:32.899Z,840.54
2023-02-17T12:11:32.884Z,845.58
2023-02-17T12:12:32.953Z,853.59
2023-02-17T12:13:32.889Z,857.22
2023-02-17T12:14:32.852Z,850.67
2023-02-17T12:15:32.852Z,835.51
2023-02-17T12:16:32.872Z,821.56
2023-02-17T12:17:32.915Z,778.15
2023-02-17T12:18:32.805Z,775.03
2023-02-17T12:19:33.126Z,762.63
2023-02-17T12:20:32.832Z,751.30
2023-02-17T12:21:32.771Z,744.48
2023-02-17T12:22:32.791Z,745.85
2023-02-17T12:23:32.759Z,742.07
2023-02-17T12:24:32.772Z,739.24
2023-02-17T12:25:32.742Z,739.83
2023-02-17T12:26:32.712Z,739.53
2023-02-17T12:27:32.750Z,738.78
2023-02-17T12:28:32.708Z,744.18
2023-02-17T12:29:32.705Z,755.04
2023-02-17T12:30:32.752Z,767.49